Flight Track Log - Related Links

Times and Time Zones

All times are in EDT time to prevent confusion due to time zone crossing. See the N498QS flight status page for this flight to view local times or setup timezone preferences in your user account.

Time Position Orientation Groundspeed Altitude Reporting Facility
EDT Latitude Longitude Course Direction KTS MPH feet Rate Location/Type
Sun 12:12:25 AM 40.1500 -74.7833 171° South 264 304 5,400  Level Philadelphia TRACON
Sun 12:13:51 AM 40.0419 -74.7619 171° South 295 339 8,700 1,479 Climbing New York Center
Sun 12:14:51 AM 39.9611 -74.7492 173° South 295 339 9,000 750 Climbing New York Center
Sun 12:15:51 AM 39.9050 -74.6811 137° Southeast 271 312 10,200 1,033 Climbing New York Center
Sun 12:16:53 AM 39.9044 -74.5647 90° East 261 300 11,100 1,388 Climbing New York Center
Sun 12:17:52 AM 39.9583 -74.4483 59° Northeast 288 331 13,000 1,831 Climbing New York Center
Sun 12:18:51 AM 40.0136 -74.3431 56° Northeast 347 399 14,700 1,916 Climbing New York Center
Sun 12:19:51 AM 40.0800 -74.2133 56° Northeast 382 440 16,800 1,749 Climbing New York Center
Sun 12:22:10 AM 40.2211 -73.9239 57° Northeast 408 470 20,500 1,450 Climbing Boston Center
Sun 12:23:22 AM 40.2853 -73.7947 57° Northeast 413 475 21,900 1,318 Climbing Boston Center
Sun 12:24:22 AM 40.3539 -73.6436 59° Northeast 413 475 23,400 1,400 Climbing Boston Center
Sun 12:25:22 AM 40.4281 -73.5142 53° Northeast 429 494 24,700 1,250 Climbing Boston Center
Sun 12:26:22 AM 40.4958 -73.3817 56° Northeast 435 501 25,900 1,100 Climbing Boston Center
Sun 12:27:22 AM 40.5678 -73.2461 55° Northeast 441 507 26,900 1,100 Climbing Boston Center
Sun 12:28:22 AM 40.6417 -73.1047 55° Northeast 447 514 28,100 1,350 Climbing Boston Center
Sun 12:29:22 AM 40.7111 -72.9686 56° Northeast 447 514 29,600 1,800 Climbing Boston Center
Sun 12:30:22 AM 40.7908 -72.8294 53° Northeast 442 509 31,700 1,850 Climbing Boston Center
Sun 12:31:22 AM 40.8600 -72.6981 55° Northeast 442 509 33,300 1,500 Climbing Boston Center
Sun 12:32:22 AM 40.9289 -72.5636 56° Northeast 437 503 34,700 1,450 Climbing Boston Center
Sun 12:33:22 AM 40.9978 -72.4347 55° Northeast 426 490 36,200 1,300 Climbing Boston Center
Sun 12:34:22 AM 41.0625 -72.3025 57° Northeast 426 490 37,300 1,200 Climbing Boston Center
Sun 12:35:22 AM 41.1308 -72.1756 54° Northeast 419 482 38,600 1,100 Climbing Boston Center
Sun 12:36:22 AM 41.1950 -72.0456 57° Northeast 419 482 39,500 850 Climbing Boston Center
Sun 12:37:22 AM 41.2614 -71.9181 55° Northeast 419 482 40,300 750 Climbing Boston Center
Sun 12:38:22 AM 41.3272 -71.7878 56° Northeast 422 486 41,000 350 Climbing Boston Center
Sun 12:39:22 AM 41.3953 -71.6569 55° Northeast 417 480 41,000  Level Boston Center
Sun 12:40:22 AM 41.4569 -71.5428 54° Northeast 422 486 41,000  Level Boston Center
Sun 12:41:22 AM 41.5244 -71.4058 57° Northeast 422 486 41,000  Level Boston Center
Sun 12:42:22 AM 41.5900 -71.2744 56° Northeast 422 486 41,000  Level Boston Center
Sun 12:43:22 AM 41.6572 -71.1425 56° Northeast 422 486 41,000  Level Boston Center
Sun 12:44:22 AM 41.7244 -71.0019 57° Northeast 428 493 41,000  Level Boston Center
Sun 12:45:22 AM 41.7914 -70.8669 56° Northeast 428 493 41,000  Level Boston Center
Sun 12:46:22 AM 41.8619 -70.7147 58° Northeast 433 498 41,000  Level Boston Center
Sun 12:47:22 AM 41.9286 -70.5761 57° Northeast 433 498 41,000  Level Boston Center
Sun 12:48:22 AM 41.9911 -70.4514 56° Northeast 438 504 41,000  Level Boston Center
Sun 12:49:22 AM 42.0553 -70.3150 58° Northeast 438 504 41,000  Level Boston Center
Sun 12:50:22 AM 42.1175 -70.1814 58° Northeast 438 504 41,000  Level Boston Center
Sun 12:51:22 AM 42.2017 -70.0297 53° Northeast 438 504 41,000  Level Boston Center
Sun 12:52:22 AM 42.2656 -69.8925 58° Northeast 443 510 41,000  Level Boston Center
Sun 12:53:22 AM 42.3208 -69.7667 59° Northeast 436 502 41,000  Level Boston Center
Sun 12:54:22 AM 42.3844 -69.6292 58° Northeast 436 502 41,000  Level Boston Center
Sun 12:55:22 AM 42.4497 -69.4911 57° Northeast 436 502 41,000  Level Boston Center
Sun 12:56:22 AM 42.5147 -69.3472 58° Northeast 436 502 41,000  Level Boston Center
Sun 12:57:22 AM 42.5917 -69.1908 56° Northeast 442 509 41,000  Level Boston Center
Sun 12:58:22 AM 42.6561 -69.0492 58° Northeast 442 509 41,000  Level Boston Center
Sun 12:59:22 AM 42.7208 -68.9100 58° Northeast 447 514 41,000  Level Boston Center
Sun 01:00:22 AM 42.7872 -68.7675 58° Northeast 447 514 41,000  Level Boston Center
Sun 01:01:22 AM 42.8375 -68.6511 59° Northeast 447 514 41,000  Level Boston Center
Sun 01:01:45 AM 42.8500 -68.5833 76° East 440 506 41,000  Level Moncton Center
Sun 01:02:22 AM 42.9075 -68.5050 45° Northeast 440 506 41,000  Level Boston Center
Sun 01:03:22 AM 42.9714 -68.3619 59° Northeast 440 506 41,000  Level Boston Center
Sun 01:03:45 AM 42.9833 -68.3000 75° East 440 506 41,000  Level Moncton Center
Sun 01:04:45 AM 43.0500 -68.1667 56° Northeast 440 506 41,000  Level Moncton Center
Sun 01:05:22 AM 43.1025 -68.0744 52° Northeast 445 512 41,000  Level Boston Center
Sun 01:06:22 AM 43.1678 -67.9300 58° Northeast 445 512 41,000  Level Boston Center
Sun 01:07:22 AM 43.2308 -67.7858 59° Northeast 445 512 41,000  Level Boston Center
Sun 01:07:45 AM 43.2333 -67.7167 87° East 440 506 41,000  Level Moncton Center
Sun 01:08:45 AM 43.3000 -67.5833 55° Northeast 440 506 41,000  Level Moncton Center
Sun 01:09:45 AM 43.3833 -67.4000 58° Northeast 440 506 41,000  Level Moncton Center
Sun 01:10:45 AM 43.4333 -67.2667 63° Northeast 450 518 41,000  Level Moncton Center
Sun 01:11:45 AM 43.5000 -67.1167 58° Northeast 450 518 41,000  Level Moncton Center
Sun 01:12:45 AM 43.5667 -66.9833 55° Northeast 450 518 41,000  Level Moncton Center
Sun 01:13:45 AM 43.6333 -66.8167 61° Northeast 450 518 41,000  Level Moncton Center
Sun 01:14:45 AM 43.7000 -66.6833 55° Northeast 450 518 41,000  Level Moncton Center
Sun 01:15:45 AM 43.7667 -66.5333 58° Northeast 450 518 41,000  Level Moncton Center
Sun 01:16:45 AM 43.8167 -66.3833 65° Northeast 450 518 41,000  Level Moncton Center
Sun 01:17:45 AM 43.8833 -66.2333 58° Northeast 450 518 41,000  Level Moncton Center
Sun 01:18:45 AM 43.9500 -66.0667 61° Northeast 450 518 41,000  Level Moncton Center
Sun 01:19:45 AM 44.0167 -65.9333 55° Northeast 450 518 41,000  Level Moncton Center
Sun 01:20:45 AM 44.0833 -65.7667 61° Northeast 460 529 41,000  Level Moncton Center
Sun 01:21:45 AM 44.1333 -65.6333 62° Northeast 450 518 41,000  Level Moncton Center
Sun 01:22:45 AM 44.2000 -65.4667 61° Northeast 450 518 41,000  Level Moncton Center
Sun 01:23:45 AM 44.2667 -65.3000 61° Northeast 450 518 41,000  Level Moncton Center
Sun 01:24:45 AM 44.3167 -65.1667 62° Northeast 450 518 41,000  Level Moncton Center
Sun 01:25:45 AM 44.3833 -65.0000 61° Northeast 460 529 41,000  Level Moncton Center
Sun 01:26:45 AM 44.4500 -64.8500 58° Northeast 460 529 41,000  Level Moncton Center
Sun 01:27:45 AM 44.5000 -64.7000 65° Northeast 460 529 41,000  Level Moncton Center
Sun 01:28:45 AM 44.5667 -64.5333 61° Northeast 460 529 41,000  Level Moncton Center
Sun 01:29:45 AM 44.6333 -64.3667 61° Northeast 460 529 41,000  Level Moncton Center
Sun 01:30:45 AM 44.7000 -64.2333 55° Northeast 460 529 41,000  Level Moncton Center
Sun 01:31:45 AM 44.7667 -64.0500 63° Northeast 460 529 41,000  Level Moncton Center
Sun 01:32:45 AM 44.8167 -63.9000 65° Northeast 470 541 41,000  Level Moncton Center
Sun 01:33:45 AM 44.8833 -63.7333 61° Northeast 470 541 41,000  Level Moncton Center
Sun 01:34:45 AM 44.9500 -63.5667 60° Northeast 470 541 41,000  Level Moncton Center
Sun 01:35:45 AM 45.0167 -63.4000 60° Northeast 490 564 41,000  Level Moncton Center
Sun 01:36:45 AM 45.0833 -63.2333 60° Northeast 470 541 41,000  Level Moncton Center
Sun 01:37:45 AM 45.1333 -63.0667 67° East 470 541 41,000  Level Moncton Center
Sun 01:38:45 AM 45.2000 -62.9333 55° Northeast 470 541 41,000  Level Moncton Center
Sun 01:39:45 AM 45.2667 -62.7333 65° Northeast 480 552 41,000  Level Moncton Center
Sun 01:40:45 AM 45.3333 -62.5667 60° Northeast 480 552 41,000  Level Moncton Center
Sun 01:41:45 AM 45.3833 -62.4000 67° East 480 552 41,000  Level Moncton Center
Sun 01:42:45 AM 45.4500 -62.2333 60° Northeast 480 552 41,000  Level Moncton Center
Sun 01:43:45 AM 45.5167 -62.0500 63° Northeast 480 552 41,000  Level Moncton Center
Sun 01:44:45 AM 45.5667 -61.8833 67° East 480 552 41,000  Level Moncton Center
Sun 01:45:45 AM 45.6333 -61.7333 58° Northeast 470 541 41,000  Level Moncton Center
Sun 01:46:45 AM 45.6833 -61.5500 69° East 480 552 41,000  Level Moncton Center
Sun 01:47:45 AM 45.7500 -61.4000 57° Northeast 480 552 41,000  Level Moncton Center
Sun 01:48:45 AM 45.8167 -61.2000 64° Northeast 480 552 41,000  Level Moncton Center
Sun 01:49:45 AM 45.8667 -61.0500 64° Northeast 480 552 41,000  Level Moncton Center
Sun 01:50:45 AM 45.9333 -60.8667 62° Northeast 480 552 41,000  Level Moncton Center
Sun 01:51:45 AM 45.9833 -60.6833 69° East 480 552 41,000  Level Moncton Center
Sun 01:52:45 AM 46.0500 -60.5167 60° Northeast 490 564 41,000  Level Moncton Center
Sun 01:53:45 AM 46.1000 -60.3333 68° East 500 575 41,000  Level Moncton Center
Sun 01:54:45 AM 46.1833 -60.1667 54° Northeast 500 575 41,000  Level Moncton Center
Sun 01:55:45 AM 46.2167 -60.0000 74° East 490 564 41,000  Level Moncton Center
Sun 01:56:45 AM 46.3000 -59.8000 59° Northeast 490 564 41,000  Level Moncton Center
Sun 01:57:45 AM 46.3500 -59.6167 68° East 490 564 41,000  Level Moncton Center
Sun 01:58:26 AM 46.4000 -59.4833 61° Northeast 500 575 41,000  Level Gander Center
Sun 01:59:26 AM 46.4500 -59.3167 66° East 500 575 41,000  Level Gander Center
Sun 02:00:26 AM 46.5000 -59.1167 70° East 500 575 41,000  Level Gander Center
Sun 02:01:26 AM 46.5667 -58.9500 60° Northeast 500 575 41,000  Level Gander Center
Sun 02:02:26 AM 46.6333 -58.7833 60° Northeast 490 564 41,000  Level Gander Center
Sun 02:03:26 AM 46.6833 -58.5833 70° East 490 564 41,000  Level Gander Center
Sun 02:03:45 AM 46.7167 -58.5333 46° Northeast 490 564 41,000  Level Moncton Center
Sun 02:04:45 AM 46.7667 -58.3333 70° East 500 575 41,000  Level Moncton Center
Sun 02:05:45 AM 46.8167 -58.1833 64° Northeast 490 564 41,000  Level Moncton Center
Sun 02:06:45 AM 46.8833 -57.9833 64° Northeast 500 575 41,000  Level Moncton Center
Sun 02:07:26 AM 46.9167 -57.8667 67° East 500 575 41,000  Level Gander Center
Sun 02:08:26 AM 46.9667 -57.6833 68° East 510 587 41,000  Level Gander Center
Sun 02:08:45 AM 47.0000 -57.6167 54° Northeast 500 575 41,000  Level Moncton Center
Sun 02:09:45 AM 47.0500 -57.4167 70° East 510 587 41,000  Level Moncton Center
Sun 02:10:45 AM 47.1000 -57.2333 68° East 510 587 41,000  Level Moncton Center
Sun 02:11:26 AM 47.1500 -57.0833 64° Northeast 510 587 41,000  Level Gander Center
Sun 02:12:26 AM 47.2000 -56.9000 68° East 500 575 41,000  Level Gander Center
Sun 02:13:26 AM 47.2500 -56.7000 70° East 510 587 41,000  Level Gander Center
Sun 02:14:26 AM 47.3167 -56.5333 59° Northeast 510 587 41,000  Level Gander Center
Sun 02:14:45 AM 47.3167 -56.4667 90° East 510 587 41,000  Level Moncton Center
Sun 02:15:26 AM 47.3667 -56.3167 64° Northeast 510 587 41,000  Level Gander Center
Sun 02:15:45 AM 47.3833 -56.2500 70° East 510 587 41,000  Level Moncton Center
Sun 02:16:45 AM 47.4500 -56.0667 62° Northeast 510 587 41,000  Level Moncton Center
Sun 02:17:45 AM 47.5000 -55.8833 68° East 510 587 41,000  Level Moncton Center
Sun 02:18:45 AM 47.5500 -55.6833 70° East 510 587 41,000  Level Moncton Center
Sun 02:19:26 AM 47.5833 -55.5667 67° East 510 587 41,000  Level Gander Center
Sun 02:20:26 AM 47.6333 -55.3500 71° East 510 587 41,000  Level Gander Center
Sun 02:20:45 AM 47.6500 -55.2833 70° East 500 575 41,000  Level Moncton Center
Sun 02:21:45 AM 47.7167 -55.0833 64° Northeast 510 587 41,000  Level Moncton Center
Sun 02:22:26 AM 47.7500 -54.9667 67° East 510 587 41,000  Level Gander Center
Sun 02:23:26 AM 47.8167 -54.7833 62° Northeast 520 598 41,000  Level Gander Center
Sun 02:24:26 AM 47.8667 -54.5833 69° East 510 587 41,000  Level Gander Center
Sun 02:24:45 AM 47.8667 -54.5000 90° East 510 587 41,000  Level Moncton Center
Sun 02:25:26 AM 47.9167 -54.3667 61° Northeast 510 587 41,000  Level Gander Center
Sun 02:26:26 AM 47.9667 -54.1667 69° East 510 587 41,000  Level Gander Center
Sun 02:27:26 AM 48.0167 -53.9833 68° East 510 587 41,000  Level Gander Center
Sun 02:28:26 AM 48.0667 -53.7667 71° East 510 587 41,000  Level Gander Center
Sun 02:29:26 AM 48.1167 -53.5833 68° East 510 587 41,000  Level Gander Center
Sun 02:30:00 AM 48.1333 -53.6000 69° East 553 636 41,000  Level ETMS Enhanced Traffic Management System
Sun 02:30:26 AM 48.1667 -53.3833 69° East 510 587 41,000  Level Gander Center
Sun 02:30:39 AM 48.1333 -53.6000 69° East 553 636 41,000  Level ETMS Enhanced Traffic Management System
Sun 02:31:26 AM 48.2167 -53.2000 69° East 500 575 41,000  Level Gander Center
Sun 02:32:26 AM 48.2833 -52.9833 65° Northeast 500 575 41,000  Level Gander Center
Sun 02:33:26 AM 48.3167 -52.8000 75° East 500 575 41,000  Level Gander Center
Sun 02:33:45 AM 48.3333 -52.7333 69° East 500 575 41,000  Level Moncton Center
Sun 02:34:45 AM 48.3833 -52.5500 68° East 500 575 41,000  Level Moncton Center
Sun 02:35:19 AM 48.4000 -52.4333 78° East 500 575 41,000  Level Gander Center
Sun 02:35:45 AM 48.4333 -52.3500 59° Northeast 500 575 41,000  Level Moncton Center
Sun 02:36:45 AM 48.4667 -52.1500 76° East 500 575 41,000  Level Moncton Center
Sun 02:37:19 AM 48.5000 -52.0333 67° East 500 575 41,000  Level Gander Center
Sun 02:38:19 AM 48.5500 -51.8500 68° East 500 575 41,000  Level Gander Center
Sun 02:38:45 AM 48.5667 -51.7667 73° East 500 575 41,000  Level Moncton Center
Sun 02:39:45 AM 48.6167 -51.5500 71° East 500 575 41,000  Level Moncton Center
Sun 02:40:19 AM 48.6333 -51.4500 76° East 500 575 41,000  Level Gander Center
Sun 02:41:19 AM 48.6833 -51.2667 67° East 500 575 41,000  Level Gander Center
Sun 02:42:19 AM 48.7333 -51.0500 71° East 500 575 41,000  Level Gander Center
Sun 02:42:45 AM 48.7667 -50.9667 59° Northeast 500 575 41,000  Level Moncton Center
Sun 02:43:26 AM 48.7833 -50.8167 80° East 510 587 41,000  Level Gander Center
Sun 02:44:26 AM 48.8333 -50.6167 69° East 510 587 41,000  Level Gander Center
Sun 02:44:45 AM 48.8500 -50.5667 63° Northeast 510 587 41,000  Level Moncton Center
Sun 02:45:26 AM 48.8833 -50.4333 69° East 510 587 41,000  Level Gander Center
Sun 02:46:26 AM 48.9333 -50.2167 71° East 510 587 41,000  Level Gander Center
Sun 02:47:19 AM 48.9667 -50.0333 74° East 510 587 41,000  Level Gander Center
Sun 02:48:00 AM 49.0000 -50.0000 69° East 504 580 41,000  Level ETMS Enhanced Traffic Management System
Sun 02:48:19 AM 49.0000 -49.8333 69° East 510 587 41,000  Level Gander Center
Sun 02:49:19 AM 49.0667 -49.6167 65° Northeast 510 587 41,000  Level Gander Center
Sun 02:50:19 AM 49.1000 -49.4333 74° East 510 587 41,000  Level Gander Center
Sun 02:52:00 AM 49.1866 -49.1284 66° East  Level FlightAware Approximate
Sun 02:59:00 AM 49.5086 -47.8294 70° East  Level FlightAware Approximate
Sun 03:00:00 AM 49.5517 -47.6417 70° East  Level FlightAware Approximate
Sun 03:01:00 AM 49.5946 -47.4538 71° East  Level FlightAware Approximate
Sun 03:02:00 AM 49.6371 -47.2655 71° East  Level FlightAware Approximate
Sun 03:03:00 AM 49.6793 -47.0769 71° East  Level FlightAware Approximate
Sun 03:04:00 AM 49.7212 -46.8879 71° East  Level FlightAware Approximate
Sun 03:05:00 AM 49.7629 -46.6987 71° East  Level FlightAware Approximate
Sun 03:06:00 AM 49.8041 -46.5090 71° East  Level FlightAware Approximate
Sun 03:07:00 AM 49.8451 -46.3191 71° East  Level FlightAware Approximate
Sun 03:08:00 AM 49.8858 -46.1289 72° East  Level FlightAware Approximate
Sun 03:09:00 AM 49.9262 -45.9383 72° East  Level FlightAware Approximate
Sun 03:10:00 AM 49.9663 -45.7475 72° East  Level FlightAware Approximate
Sun 03:11:00 AM 50.0060 -45.5563 72° East  Level FlightAware Approximate
Sun 03:12:00 AM 50.0454 -45.3647 72° East  Level FlightAware Approximate
Sun 03:13:00 AM 50.0845 -45.1729 72° East  Level FlightAware Approximate
Sun 03:14:00 AM 50.1233 -44.9808 72° East  Level FlightAware Approximate
Sun 03:15:00 AM 50.1618 -44.7883 73° East  Level FlightAware Approximate
Sun 03:16:00 AM 50.2000 -44.5956 73° East  Level FlightAware Approximate
Sun 03:17:00 AM 50.2378 -44.4025 73° East  Level FlightAware Approximate
Sun 03:18:00 AM 50.2753 -44.2092 73° East  Level FlightAware Approximate
Sun 03:19:00 AM 50.3125 -44.0155 73° East  Level FlightAware Approximate
Sun 03:20:00 AM 50.3494 -43.8215 73° East  Level FlightAware Approximate
Sun 03:21:00 AM 50.3860 -43.6273 73° East  Level FlightAware Approximate
Sun 03:22:00 AM 50.4222 -43.4327 74° East  Level FlightAware Approximate
Sun 03:23:00 AM 50.4581 -43.2378 74° East  Level FlightAware Approximate
Sun 03:24:00 AM 50.4937 -43.0426 74° East  Level FlightAware Approximate
Sun 03:25:00 AM 50.5289 -42.8472 74° East  Level FlightAware Approximate
Sun 03:26:00 AM 50.5639 -42.6514 74° East  Level FlightAware Approximate
Sun 03:27:00 AM 50.5984 -42.4554 74° East  Level FlightAware Approximate
Sun 03:28:00 AM 50.6327 -42.2591 75° East  Level FlightAware Approximate
Sun 03:29:00 AM 50.6667 -42.0625 75° East  Level FlightAware Approximate
Sun 03:30:00 AM 50.7003 -41.8656 75° East  Level FlightAware Approximate
Sun 03:31:00 AM 50.7335 -41.6684 75° East  Level FlightAware Approximate
Sun 03:32:00 AM 50.7665 -41.4710 75° East  Level FlightAware Approximate
Sun 03:33:00 AM 50.7991 -41.2732 75° East  Level FlightAware Approximate
Sun 03:34:00 AM 50.8313 -41.0752 75° East  Level FlightAware Approximate
Sun 03:35:00 AM 50.8633 -40.8769 76° East  Level FlightAware Approximate
Sun 03:36:00 AM 50.8949 -40.6784 76° East  Level FlightAware Approximate
Sun 03:37:00 AM 50.9262 -40.4796 76° East  Level FlightAware Approximate
Sun 03:37:00 AM 51.0000 -40.0000 77° East 503 579 41,000  Level ETMS Enhanced Traffic Management System
Sun 03:38:00 AM 50.9571 -40.2805 76° East  Level FlightAware Approximate
Sun 03:39:00 AM 50.9877 -40.0812 76° East  Level FlightAware Approximate
Sun 03:40:00 AM 51.0170 -39.8812 77° East  Level FlightAware Approximate
Sun 03:41:00 AM 51.0453 -39.6808 77° East  Level FlightAware Approximate
Sun 03:42:00 AM 51.0732 -39.4801 77° East  Level FlightAware Approximate
Sun 03:43:00 AM 51.2394 -38.2570 78° East 503 579 41,000  Level FlightAware Transoceanic
Sun 03:44:00 AM 51.2675 -38.0378 79° East 503 579 41,000  Level FlightAware Transoceanic
Sun 03:45:00 AM 51.2952 -37.8185 79° East 503 579 41,000  Level FlightAware Transoceanic
Sun 03:46:00 AM 51.3225 -37.5988 79° East 503 579 41,000  Level FlightAware Transoceanic
Sun 03:47:00 AM 51.3493 -37.3789 79° East 503 579 41,000  Level FlightAware Transoceanic
Sun 03:48:00 AM 51.3758 -37.1587 79° East 503 579 41,000  Level FlightAware Transoceanic
Sun 03:49:00 AM 51.4018 -36.9383 79° East 503 579 41,000  Level FlightAware Transoceanic
Sun 03:50:00 AM 51.4274 -36.7176 80° East 503 579 41,000  Level FlightAware Transoceanic
Sun 03:51:00 AM 51.4527 -36.4967 80° East 503 579 41,000  Level FlightAware Transoceanic
Sun 03:52:00 AM 51.4775 -36.2755 80° East 503 579 41,000  Level FlightAware Transoceanic
Sun 03:53:00 AM 51.5018 -36.0541 80° East 503 579 41,000  Level FlightAware Transoceanic
Sun 03:54:00 AM 51.5258 -35.8325 80° East 503 579 41,000  Level FlightAware Transoceanic
Sun 03:55:00 AM 51.5493 -35.6106 80° East 503 579 41,000  Level FlightAware Transoceanic
Sun 03:56:00 AM 51.5725 -35.3885 81° East 503 579 41,000  Level FlightAware Transoceanic
Sun 03:57:00 AM 51.5952 -35.1662 81° East 503 579 41,000  Level FlightAware Transoceanic
Sun 03:58:00 AM 51.6175 -34.9437 81° East 503 579 41,000  Level FlightAware Transoceanic
Sun 03:59:00 AM 51.6393 -34.7210 81° East 503 579 41,000  Level FlightAware Transoceanic
Sun 04:00:00 AM 51.6608 -34.4980 81° East 503 579 41,000  Level FlightAware Transoceanic
Sun 04:01:00 AM 51.6818 -34.2748 81° East 503 579 41,000  Level FlightAware Transoceanic
Sun 04:02:00 AM 51.7024 -34.0514 82° East 503 579 41,000  Level FlightAware Transoceanic
Sun 04:03:00 AM 51.7225 -33.8278 82° East 503 579 41,000  Level FlightAware Transoceanic
Sun 04:04:00 AM 51.7423 -33.6041 82° East 503 579 41,000  Level FlightAware Transoceanic
Sun 04:05:00 AM 51.7616 -33.3801 82° East 503 579 41,000  Level FlightAware Transoceanic
Sun 04:06:00 AM 51.7805 -33.1559 82° East 503 579 41,000  Level FlightAware Transoceanic
Sun 04:07:00 AM 51.7990 -32.9316 83° East 503 579 41,000  Level FlightAware Transoceanic
Sun 04:08:00 AM 51.8170 -32.7071 83° East 503 579 41,000  Level FlightAware Transoceanic
Sun 04:09:00 AM 51.8346 -32.4823 83° East 503 579 41,000  Level FlightAware Transoceanic
Sun 04:10:00 AM 51.8518 -32.2575 83° East 503 579 41,000  Level FlightAware Transoceanic
Sun 04:11:00 AM 51.8686 -32.0324 83° East 503 579 41,000  Level FlightAware Transoceanic
Sun 04:12:00 AM 51.8849 -31.8072 83° East 503 579 41,000  Level FlightAware Transoceanic
Sun 04:13:00 AM 51.9008 -31.5818 84° East 503 579 41,000  Level FlightAware Transoceanic
Sun 04:14:00 AM 51.9163 -31.3563 84° East 503 579 41,000  Level FlightAware Transoceanic
Sun 04:15:00 AM 51.9313 -31.1306 84° East 503 579 41,000  Level FlightAware Transoceanic
Sun 04:16:00 AM 51.9459 -30.9048 84° East 503 579 41,000  Level FlightAware Transoceanic
Sun 04:17:00 AM 51.9601 -30.6788 84° East 503 579 41,000  Level FlightAware Transoceanic
Sun 04:18:00 AM 51.9738 -30.4527 84° East 503 579 41,000  Level FlightAware Transoceanic
Sun 04:19:00 AM 51.9871 -30.2264 85° East 503 579 41,000  Level FlightAware Transoceanic
Sun 04:20:00 AM 51.9990 -30.0175 85° East  Level FlightAware Approximate
Sun 04:21:00 AM 52.0106 -29.8084 85° East  Level FlightAware Approximate
Sun 04:21:00 AM 52.0000 -30.0000 77° East 504 580 41,000  Level ETMS Enhanced Traffic Management System
Sun 04:22:00 AM 52.0246 -29.8298 77° East  Level FlightAware Approximate
Sun 04:23:00 AM 52.0538 -29.6252 77° East  Level FlightAware Approximate
Sun 04:24:00 AM 52.0826 -29.4203 77° East  Level FlightAware Approximate
Sun 04:25:00 AM 52.1111 -29.2152 77° East  Level FlightAware Approximate
Sun 04:26:00 AM 52.1393 -29.0098 77° East  Level FlightAware Approximate
Sun 04:27:00 AM 52.2150 -28.4422 78° East 504 580 41,000  Level FlightAware Transoceanic
Sun 04:28:00 AM 52.2440 -28.2184 78° East 504 580 41,000  Level FlightAware Transoceanic
Sun 04:29:00 AM 52.2726 -27.9944 78° East 504 580 41,000  Level FlightAware Transoceanic
Sun 04:30:00 AM 52.3008 -27.7700 78° East 504 580 41,000  Level FlightAware Transoceanic
Sun 04:31:00 AM 52.3285 -27.5454 79° East 504 580 41,000  Level FlightAware Transoceanic
Sun 04:32:00 AM 52.3558 -27.3205 79° East 504 580 41,000  Level FlightAware Transoceanic
Sun 04:33:00 AM 52.3827 -27.0954 79° East 504 580 41,000  Level FlightAware Transoceanic
Sun 04:34:00 AM 52.4092 -26.8699 79° East 504 580 41,000  Level FlightAware Transoceanic
Sun 04:35:00 AM 52.4352 -26.6442 79° East 504 580 41,000  Level FlightAware Transoceanic
Sun 04:36:00 AM 52.4609 -26.4182 80° East 504 580 41,000  Level FlightAware Transoceanic
Sun 04:37:00 AM 52.4860 -26.1920 80° East 504 580 41,000  Level FlightAware Transoceanic
Sun 04:38:00 AM 52.5108 -25.9655 80° East 504 580 41,000  Level FlightAware Transoceanic
Sun 04:39:00 AM 52.5351 -25.7387 80° East 504 580 41,000  Level FlightAware Transoceanic
Sun 04:40:00 AM 52.5590 -25.5117 80° East 504 580 41,000  Level FlightAware Transoceanic
Sun 04:41:00 AM 52.5824 -25.2845 80° East 504 580 41,000  Level FlightAware Transoceanic
Sun 04:42:00 AM 52.6054 -25.0570 81° East 504 580 41,000  Level FlightAware Transoceanic
Sun 04:43:00 AM 52.6280 -24.8293 81° East 504 580 41,000  Level FlightAware Transoceanic
Sun 04:44:00 AM 52.6502 -24.6013 81° East 504 580 41,000  Level FlightAware Transoceanic
Sun 04:45:00 AM 52.6718 -24.3732 81° East 504 580 41,000  Level FlightAware Transoceanic
Sun 04:46:00 AM 52.6931 -24.1448 81° East 504 580 41,000  Level FlightAware Transoceanic
Sun 04:47:00 AM 52.7139 -23.9161 82° East 504 580 41,000  Level FlightAware Transoceanic
Sun 04:48:00 AM 52.7343 -23.6873 82° East 504 580 41,000  Level FlightAware Transoceanic
Sun 04:49:00 AM 52.7542 -23.4582 82° East 504 580 41,000  Level FlightAware Transoceanic
Sun 04:50:00 AM 52.7738 -23.2290 82° East 504 580 41,000  Level FlightAware Transoceanic
Sun 04:51:00 AM 52.7928 -22.9995 82° East 504 580 41,000  Level FlightAware Transoceanic
Sun 04:52:00 AM 52.8114 -22.7698 82° East 504 580 41,000  Level FlightAware Transoceanic
Sun 04:53:00 AM 52.8296 -22.5400 83° East 504 580 41,000  Level FlightAware Transoceanic
Sun 04:54:00 AM 52.8473 -22.3099 83° East 504 580 41,000  Level FlightAware Transoceanic
Sun 04:55:00 AM 52.8646 -22.0797 83° East 504 580 41,000  Level FlightAware Transoceanic
Sun 04:56:00 AM 52.8814 -21.8493 83° East 504 580 41,000  Level FlightAware Transoceanic
Sun 04:57:00 AM 52.8978 -21.6187 83° East 504 580 41,000  Level FlightAware Transoceanic
Sun 04:58:00 AM 52.9138 -21.3879 84° East 504 580 41,000  Level FlightAware Transoceanic
Sun 04:59:00 AM 52.9293 -21.1570 84° East 504 580 41,000  Level FlightAware Transoceanic
Sun 05:00:00 AM 52.9443 -20.9259 84° East 504 580 41,000  Level FlightAware Transoceanic
Sun 05:01:00 AM 52.9589 -20.6947 84° East 504 580 41,000  Level FlightAware Transoceanic
Sun 05:02:00 AM 52.9730 -20.4632 84° East 504 580 41,000  Level FlightAware Transoceanic
Sun 05:03:00 AM 52.9868 -20.2317 84° East 504 580 41,000  Level FlightAware Transoceanic
Sun 05:04:00 AM 52.9990 -20.0180 84° East  Level FlightAware Approximate
Sun 05:05:00 AM 53.0108 -19.8042 85° East  Level FlightAware Approximate
Sun 05:06:00 AM 52.9995 -19.8215 90° East  Level FlightAware Approximate
Sun 05:07:00 AM 52.9984 -19.6068 90° East  Level FlightAware Approximate
Sun 05:08:00 AM 52.9970 -19.3922 91° East  Level FlightAware Approximate
Sun 05:09:00 AM 52.9953 -19.1775 91° East  Level FlightAware Approximate
Sun 05:10:00 AM 52.9931 -18.9629 91° East  Level FlightAware Approximate
Sun 05:11:00 AM 52.9905 -18.7483 91° East  Level FlightAware Approximate
Sun 05:12:00 AM 52.9876 -18.5338 91° East  Level FlightAware Approximate
Sun 05:13:00 AM 52.9843 -18.3192 91° East  Level FlightAware Approximate
Sun 05:14:00 AM 52.9805 -18.1047 92° East  Level FlightAware Approximate
Sun 05:15:00 AM 52.9764 -17.8902 92° East  Level FlightAware Approximate
Sun 05:16:00 AM 52.9720 -17.6758 92° East  Level FlightAware Approximate
Sun 05:17:00 AM 52.9671 -17.4615 92° East  Level FlightAware Approximate
Sun 05:18:00 AM 52.9618 -17.2471 92° East  Level FlightAware Approximate
Sun 05:19:00 AM 52.9562 -17.0329 92° East  Level FlightAware Approximate
Sun 05:20:00 AM 52.9501 -16.8186 93° East  Level FlightAware Approximate
Sun 05:21:00 AM 52.9437 -16.6045 93° East  Level FlightAware Approximate
Sun 05:22:00 AM 52.9369 -16.3904 93° East  Level FlightAware Approximate
Sun 05:23:00 AM 52.9297 -16.1764 93° East  Level FlightAware Approximate
Sun 05:24:00 AM 52.9222 -15.9624 93° East  Level FlightAware Approximate
Sun 05:25:00 AM 52.9142 -15.7486 93° East  Level FlightAware Approximate
Sun 05:26:00 AM 52.9059 -15.5348 94° East  Level FlightAware Approximate
Sun 05:27:00 AM 52.8972 -15.3211 94° East  Level FlightAware Approximate
Sun 05:28:00 AM 52.8881 -15.1075 94° East  Level FlightAware Approximate
Sun 05:29:00 AM 52.8790 -14.8939 94° East  Level FlightAware Approximate
Sun 05:30:00 AM 52.8699 -14.6804 94° East  Level FlightAware Approximate
Sun 05:31:00 AM 52.8605 -14.4669 94° East  Level FlightAware Approximate
Sun 05:32:00 AM 52.8506 -14.2536 94° East  Level FlightAware Approximate
Sun 05:33:00 AM 52.8404 -14.0403 94° East  Level FlightAware Approximate
Sun 05:34:00 AM 52.8298 -13.8272 95° East  Level FlightAware Approximate
Sun 05:35:00 AM 52.8188 -13.6142 95° East  Level FlightAware Approximate
Sun 05:36:00 AM 52.8075 -13.4012 95° East  Level FlightAware Approximate
Sun 05:37:00 AM 52.7957 -13.1884 95° East  Level FlightAware Approximate
Sun 05:38:00 AM 52.7836 -12.9757 95° East  Level FlightAware Approximate
Sun 05:39:00 AM 52.7711 -12.7631 95° East  Level FlightAware Approximate
Sun 05:40:00 AM 52.7582 -12.5507 96° East  Level FlightAware Approximate
Sun 05:41:00 AM 52.7450 -12.3383 96° East  Level FlightAware Approximate
Sun 05:42:00 AM 52.7313 -12.1261 96° East  Level FlightAware Approximate
Sun 05:43:00 AM 52.7173 -11.9141 96° East  Level FlightAware Approximate
Sun 05:44:00 AM 52.7029 -11.7022 96° East  Level FlightAware Approximate
Sun 05:45:00 AM 52.6882 -11.4904 96° East  Level FlightAware Approximate
Sun 05:46:00 AM 52.6730 -11.2787 97° East  Level FlightAware Approximate
Sun 05:47:00 AM 52.6575 -11.0672 97° East  Level FlightAware Approximate
Sun 05:48:00 AM 52.6416 -10.8559 97° East  Level FlightAware Approximate
Sun 05:49:00 AM 52.6253 -10.6447 97° East  Level FlightAware Approximate
Sun 05:50:00 AM 52.6087 -10.4337 97° East  Level FlightAware Approximate
Sun 05:51:00 AM 52.5916 -10.2228 97° East  Level FlightAware Approximate
Sun 05:52:00 AM 52.5742 -10.0121 98° East  Level FlightAware Approximate
Sun 05:53:00 AM 52.5565 -9.8016 98° East  Level FlightAware Approximate
Sun 05:54:00 AM 52.5383 -9.5913 98° East  Level FlightAware Approximate
Sun 05:55:00 AM 52.5198 -9.3811 98° East  Level FlightAware Approximate
Sun 05:56:00 AM 52.5009 -9.1711 98° East  Level FlightAware Approximate
Sun 05:57:00 AM 52.4817 -8.9613 98° East  Level FlightAware Approximate
Sun 05:58:00 AM 52.4620 -8.7516 99° East  Level FlightAware Approximate
Sun 05:59:00 AM 52.4420 -8.5422 99° East  Level FlightAware Approximate
Sun 06:00:00 AM 52.4216 -8.3329 99° East  Level FlightAware Approximate
Sun 06:01:00 AM 52.4009 -8.1239 99° East  Level FlightAware Approximate
Sun 06:02:00 AM 52.3798 -7.9150 99° East  Level FlightAware Approximate
Sun 06:03:00 AM 52.3583 -7.7064 99° East  Level FlightAware Approximate
Sun 06:04:00 AM 52.3365 -7.4979 100° East  Level FlightAware Approximate
Sun 06:05:00 AM 52.3143 -7.2897 100° East  Level FlightAware Approximate
Sun 06:06:00 AM 52.2917 -7.0816 100° East  Level FlightAware Approximate
Sun 06:07:00 AM 52.2687 -6.8738 100° East  Level FlightAware Approximate
Sun 06:08:00 AM 52.2454 -6.6662 100° East  Level FlightAware Approximate
Sun 06:09:00 AM 52.2217 -6.4588 100° East  Level FlightAware Approximate
Sun 06:10:00 AM 52.1977 -6.2517 101° East  Level FlightAware Approximate
Sun 06:11:00 AM 52.1733 -6.0448 101° East  Level FlightAware Approximate
Sun 06:12:00 AM 52.1485 -5.8381 101° East  Level FlightAware Approximate
Sun 06:13:00 AM 52.1227 -5.6318 101° East  Level FlightAware Approximate
Sun 06:14:00 AM 52.0965 -5.4258 102° East  Level FlightAware Approximate
Sun 06:15:00 AM 52.0700 -5.2200 102° East  Level FlightAware Approximate
Sun 06:16:00 AM 52.0432 -5.0145 102° East  Level FlightAware Approximate
Sun 06:17:00 AM 52.0159 -4.8092 102° East  Level FlightAware Approximate
Sun 06:18:00 AM 51.9883 -4.6042 102° East  Level FlightAware Approximate
Sun 06:19:00 AM 51.9604 -4.3994 102° East  Level FlightAware Approximate
Sun 06:20:00 AM 51.9321 -4.1949 103° East  Level FlightAware Approximate
Sun 06:21:00 AM 51.9034 -3.9907 103° East  Level FlightAware Approximate
Sun 06:22:00 AM 51.8687 -3.7898 102° East  Level FlightAware Approximate
Sun 06:23:00 AM 51.8394 -3.5861 105° East  Level FlightAware Approximate
Sun 06:24:00 AM 51.8058 -3.3843 105° East  Level FlightAware Approximate
Sun 06:25:00 AM 51.7760 -3.1811 103° East  Level FlightAware Approximate
Sun 06:26:00 AM 51.7475 -2.9775 100° East  Level FlightAware Approximate
Sun 06:27:00 AM 51.7206 -2.7736 105° East  Level FlightAware Approximate
Sun 06:28:00 AM 51.6860 -2.5728 106° East  Level FlightAware Approximate
Sun 06:29:00 AM 51.6510 -2.3723 106° East  Level FlightAware Approximate
Sun 06:30:00 AM 51.6309 -2.1683 105° East  Level FlightAware Approximate
Sun 06:31:00 AM 51.5888 -1.9720 112° Southeast  Level FlightAware Approximate
Sun 06:32:00 AM 51.5596 -1.7698 102° East  Level FlightAware Approximate
Sun 06:33:00 AM 51.5324 -1.5667 102° East  Level FlightAware Approximate
Sun 06:34:00 AM 51.5044 -1.3641 103° East  Level FlightAware Approximate
Sun 06:35:00 AM 51.4765 -1.1615 101° East  Level FlightAware Approximate
Sun 06:36:00 AM 51.4510 -0.9582 101° East  Level FlightAware Approximate
Sun 06:37:00 AM 51.4211 -0.7566 103° East  Level FlightAware Approximate
Sun 06:38:00 AM 51.3948 -0.5540 98° East  Level FlightAware Approximate
Sun 06:39:00 AM 51.3675 -0.3531 112° Southeast  Level FlightAware Approximate
Sun 06:40:00 AM 51.3426 -0.1570 101° East  Level FlightAware Approximate
Sun 06:41:00 AM 51.3167 0.0167 105° East  Level FlightAware Approximate
Sun 06:42:00 AM 51.3308 0.0325 105° East  Level Estimated
Sun 06:43:00 AM 51.3308 0.0325 105° East  Level Estimated
Sun 06:44:00 AM 51.3308 0.0325 105° East  Level Estimated
Sun 06:45:00 AM 51.3308 0.0325 105° East  Level Estimated
Sun 06:46:00 AM 51.3308 0.0325 105° East  Level Estimated
Sun 06:47:00 AM 51.3308 0.0325 105° East  Level Estimated
Sun 06:48:00 AM 51.3308 0.0325 105° East  Level Estimated
Sun 06:49:00 AM 51.3308 0.0325 105° East  Level Estimated
Sun 06:50:00 AM 51.3308 0.0325 105° East  Level Estimated
Sun 06:51:00 AM 51.3308 0.0325 105° East  Level Estimated
Sun 06:52:00 AM 51.3308 0.0325 105° East  Level Estimated
Sun 06:53:00 AM 51.3308 0.0325 105° East  Level Estimated
Sun 06:54:00 AM 51.3308 0.0325 105° East  Level Estimated
Sun 06:55:00 AM 51.3308 0.0325 105° East  Level Estimated
Sun 06:56:00 AM 51.3308 0.0325 105° East  Level Estimated
Sun 06:57:00 AM 51.3308 0.0325 105° East  Level Estimated
Sun 06:58:00 AM 51.3308 0.0325 105° East  Level Estimated
Sun 06:59:00 AM 51.3308 0.0325 105° East  Level Estimated
Sun 07:00:00 AM 51.3308 0.0325 105° East  Level Estimated
Sun 07:01:00 AM 51.3308 0.0325 105° East  Level Estimated
Sun 07:02:00 AM 51.3308 0.0325 105° East  Level Estimated
Sun 07:03:00 AM 51.3308 0.0325 105° East  Level Estimated
Sun 07:04:00 AM 51.3308 0.0325 105° East  Level Estimated
Sun 07:05:00 AM 51.3308 0.0325 105° East  Level Estimated
Sun 07:06:00 AM 51.3308 0.0325 105° East  Level Estimated
Sun 07:07:00 AM 51.3308 0.0325 105° East  Level Estimated
Sun 07:08:00 AM 51.3308 0.0325 105° East  Level Estimated

Login

Don't have an account? Register now (free) for customized features, flight alerts, and more!